sensor_id;sensor_type;location;lat;lon;timestamp;temperature;humidity
72484;DHT22;74199;52.014;5.430;2024-02-21T00:00:29;19.60;50.50
72484;DHT22;74199;52.014;5.430;2024-02-21T00:02:56;19.60;50.50
72484;DHT22;74199;52.014;5.430;2024-02-21T00:05:27;19.60;50.50
72484;DHT22;74199;52.014;5.430;2024-02-21T00:07:54;19.60;50.50
72484;DHT22;74199;52.014;5.430;2024-02-21T00:10:21;19.60;50.50
72484;DHT22;74199;52.014;5.430;2024-02-21T00:12:48;19.60;50.50
72484;DHT22;74199;52.014;5.430;2024-02-21T00:15:15;19.50;50.50
72484;DHT22;74199;52.014;5.430;2024-02-21T00:17:43;19.50;50.50
72484;DHT22;74199;52.014;5.430;2024-02-21T00:20:11;19.50;50.50
72484;DHT22;74199;52.014;5.430;2024-02-21T00:22:38;19.50;50.50
72484;DHT22;74199;52.014;5.430;2024-02-21T00:25:05;19.50;50.50
72484;DHT22;74199;52.014;5.430;2024-02-21T00:27:32;19.50;50.50
72484;DHT22;74199;52.014;5.430;2024-02-21T00:29:59;19.50;50.50
72484;DHT22;74199;52.014;5.430;2024-02-21T00:32:26;19.50;50.50
72484;DHT22;74199;52.014;5.430;2024-02-21T00:34:53;19.50;50.50
72484;DHT22;74199;52.014;5.430;2024-02-21T00:37:20;19.50;50.50
72484;DHT22;74199;52.014;5.430;2024-02-21T00:39:47;19.50;50.50
72484;DHT22;74199;52.014;5.430;2024-02-21T00:42:14;19.50;50.50
72484;DHT22;74199;52.014;5.430;2024-02-21T00:44:40;19.50;50.50
72484;DHT22;74199;52.014;5.430;2024-02-21T00:47:07;19.50;50.50
72484;DHT22;74199;52.014;5.430;2024-02-21T00:49:34;19.50;50.50
72484;DHT22;74199;52.014;5.430;2024-02-21T00:52:01;19.50;50.50
72484;DHT22;74199;52.014;5.430;2024-02-21T00:54:28;19.50;50.50
72484;DHT22;74199;52.014;5.430;2024-02-21T00:57:10;19.50;50.60
72484;DHT22;74199;52.014;5.430;2024-02-21T00:59:37;19.50;50.60
72484;DHT22;74199;52.014;5.430;2024-02-21T01:02:04;19.50;50.60
72484;DHT22;74199;52.014;5.430;2024-02-21T01:04:31;19.50;50.60
72484;DHT22;74199;52.014;5.430;2024-02-21T01:06:58;19.50;50.50
72484;DHT22;74199;52.014;5.430;2024-02-21T01:09:25;19.50;50.60
72484;DHT22;74199;52.014;5.430;2024-02-21T01:11:52;19.60;50.50
72484;DHT22;74199;52.014;5.430;2024-02-21T01:14:19;19.60;50.50
72484;DHT22;74199;52.014;5.430;2024-02-21T01:16:46;19.60;50.50
72484;DHT22;74199;52.014;5.430;2024-02-21T01:19:13;19.60;50.40
72484;DHT22;74199;52.014;5.430;2024-02-21T01:21:40;19.60;50.40
72484;DHT22;74199;52.014;5.430;2024-02-21T01:24:07;19.60;50.40
72484;DHT22;74199;52.014;5.430;2024-02-21T01:26:34;19.60;50.40
72484;DHT22;74199;52.014;5.430;2024-02-21T01:29:01;19.60;50.40
72484;DHT22;74199;52.014;5.430;2024-02-21T01:31:27;19.60;50.40
72484;DHT22;74199;52.014;5.430;2024-02-21T01:33:54;19.60;50.40
72484;DHT22;74199;52.014;5.430;2024-02-21T01:36:22;19.60;50.40
72484;DHT22;74199;52.014;5.430;2024-02-21T01:38:50;19.60;50.40
72484;DHT22;74199;52.014;5.430;2024-02-21T01:41:16;19.60;50.30
72484;DHT22;74199;52.014;5.430;2024-02-21T01:43:43;19.60;50.40
72484;DHT22;74199;52.014;5.430;2024-02-21T01:46:10;19.60;50.30
72484;DHT22;74199;52.014;5.430;2024-02-21T01:48:37;19.60;50.30
72484;DHT22;74199;52.014;5.430;2024-02-21T01:51:05;19.60;50.30
72484;DHT22;74199;52.014;5.430;2024-02-21T01:53:42;19.60;50.30
72484;DHT22;74199;52.014;5.430;2024-02-21T01:56:09;19.60;50.30
72484;DHT22;74199;52.014;5.430;2024-02-21T01:58:37;19.70;50.30
72484;DHT22;74199;52.014;5.430;2024-02-21T02:01:06;19.70;50.30
72484;DHT22;74199;52.014;5.430;2024-02-21T02:03:33;19.70;50.30
72484;DHT22;74199;52.014;5.430;2024-02-21T02:06:00;19.70;50.30
72484;DHT22;74199;52.014;5.430;2024-02-21T02:08:27;19.70;50.30
72484;DHT22;74199;52.014;5.430;2024-02-21T02:10:54;19.70;50.30
72484;DHT22;74199;52.014;5.430;2024-02-21T02:13:21;19.70;50.20
72484;DHT22;74199;52.014;5.430;2024-02-21T02:15:49;19.70;50.30
72484;DHT22;74199;52.014;5.430;2024-02-21T02:18:17;19.70;50.30
72484;DHT22;74199;52.014;5.430;2024-02-21T02:20:45;19.70;50.20
72484;DHT22;74199;52.014;5.430;2024-02-21T02:23:29;19.70;50.20
72484;DHT22;74199;52.014;5.430;2024-02-21T02:25:56;19.70;50.30
72484;DHT22;74199;52.014;5.430;2024-02-21T02:28:23;19.70;50.20
72484;DHT22;74199;52.014;5.430;2024-02-21T02:30:51;19.70;50.20
72484;DHT22;74199;52.014;5.430;2024-02-21T02:33:18;19.70;50.20
72484;DHT22;74199;52.014;5.430;2024-02-21T02:35:45;19.80;50.10
72484;DHT22;74199;52.014;5.430;2024-02-21T02:38:12;19.80;50.20
72484;DHT22;74199;52.014;5.430;2024-02-21T02:40:41;19.80;50.20
72484;DHT22;74199;52.014;5.430;2024-02-21T02:43:09;19.80;50.20
72484;DHT22;74199;52.014;5.430;2024-02-21T02:45:36;19.80;50.20
72484;DHT22;74199;52.014;5.430;2024-02-21T02:48:03;19.80;50.10
72484;DHT22;74199;52.014;5.430;2024-02-21T02:50:31;19.80;50.10
72484;DHT22;74199;52.014;5.430;2024-02-21T02:52:58;19.80;50.10
72484;DHT22;74199;52.014;5.430;2024-02-21T02:55:25;19.80;50.10
72484;DHT22;74199;52.014;5.430;2024-02-21T02:57:53;19.80;50.00
72484;DHT22;74199;52.014;5.430;2024-02-21T03:00:20;19.80;50.10
72484;DHT22;74199;52.014;5.430;2024-02-21T03:02:49;19.80;50.10
72484;DHT22;74199;52.014;5.430;2024-02-21T03:05:21;19.80;50.10
72484;DHT22;74199;52.014;5.430;2024-02-21T03:07:48;19.80;50.10
72484;DHT22;74199;52.014;5.430;2024-02-21T03:10:18;19.80;50.10
72484;DHT22;74199;52.014;5.430;2024-02-21T03:12:46;19.80;50.00
72484;DHT22;74199;52.014;5.430;2024-02-21T03:15:13;19.80;50.00
72484;DHT22;74199;52.014;5.430;2024-02-21T03:17:41;19.80;50.00
72484;DHT22;74199;52.014;5.430;2024-02-21T03:20:08;19.80;50.00
72484;DHT22;74199;52.014;5.430;2024-02-21T03:22:38;19.80;50.00
72484;DHT22;74199;52.014;5.430;2024-02-21T03:25:06;19.80;50.00
72484;DHT22;74199;52.014;5.430;2024-02-21T03:27:33;19.90;50.00
72484;DHT22;74199;52.014;5.430;2024-02-21T03:30:00;19.90;50.00
72484;DHT22;74199;52.014;5.430;2024-02-21T03:32:27;19.90;50.00
72484;DHT22;74199;52.014;5.430;2024-02-21T03:34:55;19.90;50.00
72484;DHT22;74199;52.014;5.430;2024-02-21T03:37:22;19.90;50.00
72484;DHT22;74199;52.014;5.430;2024-02-21T03:39:49;19.90;50.00
72484;DHT22;74199;52.014;5.430;2024-02-21T03:42:16;19.90;50.00
72484;DHT22;74199;52.014;5.430;2024-02-21T03:44:44;19.90;50.00
72484;DHT22;74199;52.014;5.430;2024-02-21T03:47:10;19.90;50.00
72484;DHT22;74199;52.014;5.430;2024-02-21T03:49:38;19.90;49.90
72484;DHT22;74199;52.014;5.430;2024-02-21T03:52:06;19.90;50.00
72484;DHT22;74199;52.014;5.430;2024-02-21T03:54:33;19.90;49.90
72484;DHT22;74199;52.014;5.430;2024-02-21T03:57:00;19.90;49.90
72484;DHT22;74199;52.014;5.430;2024-02-21T03:59:26;19.90;50.00
72484;DHT22;74199;52.014;5.430;2024-02-21T04:01:53;19.90;49.90
72484;DHT22;74199;52.014;5.430;2024-02-21T04:04:21;19.90;49.90
72484;DHT22;74199;52.014;5.430;2024-02-21T04:06:49;19.90;49.90
72484;DHT22;74199;52.014;5.430;2024-02-21T04:09:16;19.90;49.90
72484;DHT22;74199;52.014;5.430;2024-02-21T04:11:43;19.90;49.90
72484;DHT22;74199;52.014;5.430;2024-02-21T04:14:11;19.90;49.90
72484;DHT22;74199;52.014;5.430;2024-02-21T04:16:39;19.90;49.90
72484;DHT22;74199;52.014;5.430;2024-02-21T04:19:06;19.90;49.90
72484;DHT22;74199;52.014;5.430;2024-02-21T04:21:34;19.90;49.80
72484;DHT22;74199;52.014;5.430;2024-02-21T04:24:01;19.90;49.80
72484;DHT22;74199;52.014;5.430;2024-02-21T04:26:30;19.90;49.90
72484;DHT22;74199;52.014;5.430;2024-02-21T04:28:57;19.90;49.90
72484;DHT22;74199;52.014;5.430;2024-02-21T04:31:24;19.90;49.80
72484;DHT22;74199;52.014;5.430;2024-02-21T04:33:52;19.90;49.80
72484;DHT22;74199;52.014;5.430;2024-02-21T04:36:19;19.90;49.80
72484;DHT22;74199;52.014;5.430;2024-02-21T04:38:45;19.90;49.80
72484;DHT22;74199;52.014;5.430;2024-02-21T04:41:12;19.90;49.80
72484;DHT22;74199;52.014;5.430;2024-02-21T04:43:39;20.00;49.80
72484;DHT22;74199;52.014;5.430;2024-02-21T04:46:07;20.00;49.80
72484;DHT22;74199;52.014;5.430;2024-02-21T04:48:34;20.00;49.70
72484;DHT22;74199;52.014;5.430;2024-02-21T04:51:01;20.00;49.80
72484;DHT22;74199;52.014;5.430;2024-02-21T04:53:28;20.00;49.70
72484;DHT22;74199;52.014;5.430;2024-02-21T04:55:55;20.00;49.80
72484;DHT22;74199;52.014;5.430;2024-02-21T04:58:22;20.00;49.70
72484;DHT22;74199;52.014;5.430;2024-02-21T05:00:49;20.00;49.70
72484;DHT22;74199;52.014;5.430;2024-02-21T05:03:16;20.00;49.70
72484;DHT22;74199;52.014;5.430;2024-02-21T05:05:43;20.00;49.80
72484;DHT22;74199;52.014;5.430;2024-02-21T05:08:10;20.00;49.80
72484;DHT22;74199;52.014;5.430;2024-02-21T05:10:37;20.00;49.70
72484;DHT22;74199;52.014;5.430;2024-02-21T05:13:04;20.00;49.70
72484;DHT22;74199;52.014;5.430;2024-02-21T05:15:31;20.00;49.70
72484;DHT22;74199;52.014;5.430;2024-02-21T05:17:58;20.00;49.70
72484;DHT22;74199;52.014;5.430;2024-02-21T05:20:25;20.00;49.70
72484;DHT22;74199;52.014;5.430;2024-02-21T05:22:52;20.00;49.70
72484;DHT22;74199;52.014;5.430;2024-02-21T05:25:19;20.00;49.70
72484;DHT22;74199;52.014;5.430;2024-02-21T05:27:46;20.00;49.60
72484;DHT22;74199;52.014;5.430;2024-02-21T05:30:13;20.00;49.60
72484;DHT22;74199;52.014;5.430;2024-02-21T05:32:41;20.00;49.70
72484;DHT22;74199;52.014;5.430;2024-02-21T05:35:08;20.00;49.60
72484;DHT22;74199;52.014;5.430;2024-02-21T05:37:35;20.00;49.70
72484;DHT22;74199;52.014;5.430;2024-02-21T05:40:02;20.00;49.60
72484;DHT22;74199;52.014;5.430;2024-02-21T05:42:29;20.00;49.70
72484;DHT22;74199;52.014;5.430;2024-02-21T05:44:56;20.00;49.60
72484;DHT22;74199;52.014;5.430;2024-02-21T05:47:23;20.00;49.70
72484;DHT22;74199;52.014;5.430;2024-02-21T05:49:50;20.00;49.70
72484;DHT22;74199;52.014;5.430;2024-02-21T05:52:20;20.00;49.70
72484;DHT22;74199;52.014;5.430;2024-02-21T05:54:47;20.00;49.60
72484;DHT22;74199;52.014;5.430;2024-02-21T05:57:17;20.00;49.60
72484;DHT22;74199;52.014;5.430;2024-02-21T05:59:44;20.00;49.60
72484;DHT22;74199;52.014;5.430;2024-02-21T06:02:11;20.00;49.60
72484;DHT22;74199;52.014;5.430;2024-02-21T06:04:38;20.00;49.60
72484;DHT22;74199;52.014;5.430;2024-02-21T06:07:06;20.00;49.60
72484;DHT22;74199;52.014;5.430;2024-02-21T06:09:33;20.00;49.60
72484;DHT22;74199;52.014;5.430;2024-02-21T06:12:00;20.00;49.60
72484;DHT22;74199;52.014;5.430;2024-02-21T06:14:27;20.00;49.60
72484;DHT22;74199;52.014;5.430;2024-02-21T06:16:54;20.00;49.60
72484;DHT22;74199;52.014;5.430;2024-02-21T06:19:21;20.00;49.60
72484;DHT22;74199;52.014;5.430;2024-02-21T06:21:48;20.00;49.60
72484;DHT22;74199;52.014;5.430;2024-02-21T06:24:15;20.00;49.60
72484;DHT22;74199;52.014;5.430;2024-02-21T06:26:42;20.00;49.60
72484;DHT22;74199;52.014;5.430;2024-02-21T06:29:08;20.10;49.60
72484;DHT22;74199;52.014;5.430;2024-02-21T06:31:35;20.10;49.60
72484;DHT22;74199;52.014;5.430;2024-02-21T06:34:02;20.10;49.50
72484;DHT22;74199;52.014;5.430;2024-02-21T06:36:30;20.10;49.60
72484;DHT22;74199;52.014;5.430;2024-02-21T06:38:57;20.10;49.50
72484;DHT22;74199;52.014;5.430;2024-02-21T06:41:24;20.10;49.50
72484;DHT22;74199;52.014;5.430;2024-02-21T06:43:51;20.10;49.50
72484;DHT22;74199;52.014;5.430;2024-02-21T06:46:27;20.10;49.50
72484;DHT22;74199;52.014;5.430;2024-02-21T06:49:01;20.10;49.40
72484;DHT22;74199;52.014;5.430;2024-02-21T06:51:28;20.10;49.50
72484;DHT22;74199;52.014;5.430;2024-02-21T06:53:55;20.10;49.40
72484;DHT22;74199;52.014;5.430;2024-02-21T06:56:25;20.10;49.40
72484;DHT22;74199;52.014;5.430;2024-02-21T06:58:56;20.10;49.50
72484;DHT22;74199;52.014;5.430;2024-02-21T07:01:24;20.10;49.40
72484;DHT22;74199;52.014;5.430;2024-02-21T07:03:51;20.10;49.50
72484;DHT22;74199;52.014;5.430;2024-02-21T07:06:18;20.10;49.60
72484;DHT22;74199;52.014;5.430;2024-02-21T07:08:45;20.10;49.70
72484;DHT22;74199;52.014;5.430;2024-02-21T07:11:12;20.10;49.60
72484;DHT22;74199;52.014;5.430;2024-02-21T07:13:39;20.10;49.60
72484;DHT22;74199;52.014;5.430;2024-02-21T07:16:07;20.10;49.50
72484;DHT22;74199;52.014;5.430;2024-02-21T07:18:34;20.10;49.50
72484;DHT22;74199;52.014;5.430;2024-02-21T07:21:01;20.10;49.50
72484;DHT22;74199;52.014;5.430;2024-02-21T07:23:28;20.10;49.50
72484;DHT22;74199;52.014;5.430;2024-02-21T07:25:55;20.10;49.50
72484;DHT22;74199;52.014;5.430;2024-02-21T07:28:22;20.10;49.50
72484;DHT22;74199;52.014;5.430;2024-02-21T07:30:49;20.10;49.50
72484;DHT22;74199;52.014;5.430;2024-02-21T07:33:16;20.20;49.40
72484;DHT22;74199;52.014;5.430;2024-02-21T07:35:43;20.20;49.50
72484;DHT22;74199;52.014;5.430;2024-02-21T07:38:12;20.20;49.50
72484;DHT22;74199;52.014;5.430;2024-02-21T07:40:39;20.20;49.50
72484;DHT22;74199;52.014;5.430;2024-02-21T07:43:07;20.20;49.60
72484;DHT22;74199;52.014;5.430;2024-02-21T07:45:34;20.20;49.70
72484;DHT22;74199;52.014;5.430;2024-02-21T07:48:01;20.20;49.70
72484;DHT22;74199;52.014;5.430;2024-02-21T07:50:28;20.20;50.50
72484;DHT22;74199;52.014;5.430;2024-02-21T07:52:55;20.20;50.50
72484;DHT22;74199;52.014;5.430;2024-02-21T07:55:22;20.20;50.40
72484;DHT22;74199;52.014;5.430;2024-02-21T07:57:49;20.20;50.30
72484;DHT22;74199;52.014;5.430;2024-02-21T08:00:16;20.20;50.30
72484;DHT22;74199;52.014;5.430;2024-02-21T08:02:51;20.20;50.30
72484;DHT22;74199;52.014;5.430;2024-02-21T08:05:18;20.20;50.30
72484;DHT22;74199;52.014;5.430;2024-02-21T08:07:45;20.20;50.20
72484;DHT22;74199;52.014;5.430;2024-02-21T08:10:12;20.30;50.10
72484;DHT22;74199;52.014;5.430;2024-02-21T08:12:39;20.30;50.00
72484;DHT22;74199;52.014;5.430;2024-02-21T08:15:06;20.30;50.00
72484;DHT22;74199;52.014;5.430;2024-02-21T08:17:37;20.30;49.90
72484;DHT22;74199;52.014;5.430;2024-02-21T08:20:05;20.30;49.90
72484;DHT22;74199;52.014;5.430;2024-02-21T08:22:32;20.30;49.90
72484;DHT22;74199;52.014;5.430;2024-02-21T08:24:59;20.30;49.90
72484;DHT22;74199;52.014;5.430;2024-02-21T08:27:26;20.30;49.90
72484;DHT22;74199;52.014;5.430;2024-02-21T08:29:53;20.30;49.90
72484;DHT22;74199;52.014;5.430;2024-02-21T08:32:20;20.30;49.90
72484;DHT22;74199;52.014;5.430;2024-02-21T08:34:46;20.40;49.90
72484;DHT22;74199;52.014;5.430;2024-02-21T08:37:13;20.40;49.80
72484;DHT22;74199;52.014;5.430;2024-02-21T08:39:40;20.40;49.80
72484;DHT22;74199;52.014;5.430;2024-02-21T08:42:07;20.40;49.70
72484;DHT22;74199;52.014;5.430;2024-02-21T08:44:34;20.40;49.60
72484;DHT22;74199;52.014;5.430;2024-02-21T08:47:01;20.40;49.70
72484;DHT22;74199;52.014;5.430;2024-02-21T08:49:31;20.40;49.60
72484;DHT22;74199;52.014;5.430;2024-02-21T08:52:01;20.40;49.60
72484;DHT22;74199;52.014;5.430;2024-02-21T08:54:30;20.40;49.50
72484;DHT22;74199;52.014;5.430;2024-02-21T08:56:57;20.40;49.50
72484;DHT22;74199;52.014;5.430;2024-02-21T08:59:24;20.40;49.50
72484;DHT22;74199;52.014;5.430;2024-02-21T09:01:52;20.40;49.40
72484;DHT22;74199;52.014;5.430;2024-02-21T09:04:20;20.40;49.40
72484;DHT22;74199;52.014;5.430;2024-02-21T09:06:47;20.40;49.40
72484;DHT22;74199;52.014;5.430;2024-02-21T09:09:14;20.40;49.30
72484;DHT22;74199;52.014;5.430;2024-02-21T09:11:41;20.50;49.20
72484;DHT22;74199;52.014;5.430;2024-02-21T09:14:09;20.40;49.20
72484;DHT22;74199;52.014;5.430;2024-02-21T09:16:36;20.40;49.00
72484;DHT22;74199;52.014;5.430;2024-02-21T09:19:04;20.40;49.00
72484;DHT22;74199;52.014;5.430;2024-02-21T09:21:31;20.40;49.10
72484;DHT22;74199;52.014;5.430;2024-02-21T09:23:58;20.40;49.20
72484;DHT22;74199;52.014;5.430;2024-02-21T09:26:26;20.40;49.30
72484;DHT22;74199;52.014;5.430;2024-02-21T09:28:53;20.40;49.30
72484;DHT22;74199;52.014;5.430;2024-02-21T09:31:21;20.40;49.30
72484;DHT22;74199;52.014;5.430;2024-02-21T09:33:48;20.40;49.30
72484;DHT22;74199;52.014;5.430;2024-02-21T09:36:15;20.40;49.40
72484;DHT22;74199;52.014;5.430;2024-02-21T09:38:42;20.40;49.30
72484;DHT22;74199;52.014;5.430;2024-02-21T09:41:24;20.40;49.30
72484;DHT22;74199;52.014;5.430;2024-02-21T09:43:52;20.40;49.30
72484;DHT22;74199;52.014;5.430;2024-02-21T09:46:44;20.40;49.30
72484;DHT22;74199;52.014;5.430;2024-02-21T09:49:29;20.40;49.30
72484;DHT22;74199;52.014;5.430;2024-02-21T09:52:00;20.40;49.20
72484;DHT22;74199;52.014;5.430;2024-02-21T09:54:29;20.40;49.30
72484;DHT22;74199;52.014;5.430;2024-02-21T09:56:58;20.40;49.30
72484;DHT22;74199;52.014;5.430;2024-02-21T09:59:28;20.40;49.30
72484;DHT22;74199;52.014;5.430;2024-02-21T10:01:55;20.40;49.20
72484;DHT22;74199;52.014;5.430;2024-02-21T10:04:23;20.40;49.20
72484;DHT22;74199;52.014;5.430;2024-02-21T10:06:50;20.40;49.20
72484;DHT22;74199;52.014;5.430;2024-02-21T10:09:24;20.40;49.20
72484;DHT22;74199;52.014;5.430;2024-02-21T10:11:55;20.40;49.30
72484;DHT22;74199;52.014;5.430;2024-02-21T10:14:22;20.40;49.30
72484;DHT22;74199;52.014;5.430;2024-02-21T10:16:56;20.40;49.20
72484;DHT22;74199;52.014;5.430;2024-02-21T10:19:27;20.40;49.20
72484;DHT22;74199;52.014;5.430;2024-02-21T10:22:09;20.40;49.20
72484;DHT22;74199;52.014;5.430;2024-02-21T10:24:37;20.40;49.30
72484;DHT22;74199;52.014;5.430;2024-02-21T10:27:10;20.40;49.30
72484;DHT22;74199;52.014;5.430;2024-02-21T10:29:40;20.50;49.20
72484;DHT22;74199;52.014;5.430;2024-02-21T10:32:09;20.40;49.30
72484;DHT22;74199;52.014;5.430;2024-02-21T10:34:40;20.50;49.20
72484;DHT22;74199;52.014;5.430;2024-02-21T10:37:09;20.40;49.30
72484;DHT22;74199;52.014;5.430;2024-02-21T10:39:38;20.50;49.20
72484;DHT22;74199;52.014;5.430;2024-02-21T10:42:06;20.50;49.20
72484;DHT22;74199;52.014;5.430;2024-02-21T10:44:37;20.40;49.20
72484;DHT22;74199;52.014;5.430;2024-02-21T10:47:08;20.40;49.20
72484;DHT22;74199;52.014;5.430;2024-02-21T10:49:39;20.50;49.20
72484;DHT22;74199;52.014;5.430;2024-02-21T10:52:13;20.40;49.10
72484;DHT22;74199;52.014;5.430;2024-02-21T10:54:48;20.50;49.20
72484;DHT22;74199;52.014;5.430;2024-02-21T10:57:19;20.50;49.20
72484;DHT22;74199;52.014;5.430;2024-02-21T10:59:49;20.50;49.10
72484;DHT22;74199;52.014;5.430;2024-02-21T11:02:16;20.50;49.10
72484;DHT22;74199;52.014;5.430;2024-02-21T11:04:44;20.50;49.20
72484;DHT22;74199;52.014;5.430;2024-02-21T11:07:13;20.50;49.20
72484;DHT22;74199;52.014;5.430;2024-02-21T11:09:50;20.50;49.20
72484;DHT22;74199;52.014;5.430;2024-02-21T11:12:20;20.50;49.20
72484;DHT22;74199;52.014;5.430;2024-02-21T11:14:48;20.50;49.20
72484;DHT22;74199;52.014;5.430;2024-02-21T11:17:19;20.50;49.20
72484;DHT22;74199;52.014;5.430;2024-02-21T11:19:46;20.50;49.20
72484;DHT22;74199;52.014;5.430;2024-02-21T11:22:19;20.50;49.20
72484;DHT22;74199;52.014;5.430;2024-02-21T11:24:47;20.50;49.20
72484;DHT22;74199;52.014;5.430;2024-02-21T11:27:15;20.50;49.20
72484;DHT22;74199;52.014;5.430;2024-02-21T11:29:43;20.50;49.20
72484;DHT22;74199;52.014;5.430;2024-02-21T11:32:11;20.50;49.10
72484;DHT22;74199;52.014;5.430;2024-02-21T11:34:41;20.50;49.10
72484;DHT22;74199;52.014;5.430;2024-02-21T11:37:14;20.50;49.20
72484;DHT22;74199;52.014;5.430;2024-02-21T11:39:43;20.50;49.30
72484;DHT22;74199;52.014;5.430;2024-02-21T11:42:10;20.50;49.30
72484;DHT22;74199;52.014;5.430;2024-02-21T11:44:39;20.50;49.50
72484;DHT22;74199;52.014;5.430;2024-02-21T11:47:09;20.50;49.50
72484;DHT22;74199;52.014;5.430;2024-02-21T11:49:45;20.50;49.50
72484;DHT22;74199;52.014;5.430;2024-02-21T11:52:13;20.50;49.50
72484;DHT22;74199;52.014;5.430;2024-02-21T11:54:42;20.50;49.40
72484;DHT22;74199;52.014;5.430;2024-02-21T11:57:10;20.50;49.40
72484;DHT22;74199;52.014;5.430;2024-02-21T11:59:40;20.50;49.30
72484;DHT22;74199;52.014;5.430;2024-02-21T12:02:07;20.50;49.30
72484;DHT22;74199;52.014;5.430;2024-02-21T12:04:35;20.50;49.30
72484;DHT22;74199;52.014;5.430;2024-02-21T12:07:03;20.50;49.30
72484;DHT22;74199;52.014;5.430;2024-02-21T12:09:31;20.50;49.20
72484;DHT22;74199;52.014;5.430;2024-02-21T12:12:02;20.50;49.30
72484;DHT22;74199;52.014;5.430;2024-02-21T12:14:33;20.50;49.30
72484;DHT22;74199;52.014;5.430;2024-02-21T12:17:00;20.50;49.30
72484;DHT22;74199;52.014;5.430;2024-02-21T12:19:32;20.50;49.30
72484;DHT22;74199;52.014;5.430;2024-02-21T12:21:59;20.50;49.50
72484;DHT22;74199;52.014;5.430;2024-02-21T12:24:28;20.50;49.50
72484;DHT22;74199;52.014;5.430;2024-02-21T12:26:56;20.50;49.50
72484;DHT22;74199;52.014;5.430;2024-02-21T12:29:24;20.50;49.50
72484;DHT22;74199;52.014;5.430;2024-02-21T12:31:51;20.50;49.40
72484;DHT22;74199;52.014;5.430;2024-02-21T12:34:18;20.50;49.40
72484;DHT22;74199;52.014;5.430;2024-02-21T12:37:01;20.50;49.40
72484;DHT22;74199;52.014;5.430;2024-02-21T12:39:30;20.50;49.40
72484;DHT22;74199;52.014;5.430;2024-02-21T12:41:58;20.50;49.50
72484;DHT22;74199;52.014;5.430;2024-02-21T12:44:25;20.50;49.50
72484;DHT22;74199;52.014;5.430;2024-02-21T12:46:53;20.50;49.50
72484;DHT22;74199;52.014;5.430;2024-02-21T12:49:22;20.50;49.50
72484;DHT22;74199;52.014;5.430;2024-02-21T12:51:49;20.50;49.40
72484;DHT22;74199;52.014;5.430;2024-02-21T12:54:16;20.50;49.40
72484;DHT22;74199;52.014;5.430;2024-02-21T12:56:43;20.50;49.40
72484;DHT22;74199;52.014;5.430;2024-02-21T12:59:10;20.50;49.30
72484;DHT22;74199;52.014;5.430;2024-02-21T13:01:37;20.50;49.40
72484;DHT22;74199;52.014;5.430;2024-02-21T13:04:07;20.50;49.30
72484;DHT22;74199;52.014;5.430;2024-02-21T13:06:34;20.50;49.40
72484;DHT22;74199;52.014;5.430;2024-02-21T13:09:02;20.50;49.40
72484;DHT22;74199;52.014;5.430;2024-02-21T13:11:31;20.50;49.40
72484;DHT22;74199;52.014;5.430;2024-02-21T13:13:59;20.50;49.40
72484;DHT22;74199;52.014;5.430;2024-02-21T13:16:26;20.50;49.40
72484;DHT22;74199;52.014;5.430;2024-02-21T13:18:53;20.50;49.40
72484;DHT22;74199;52.014;5.430;2024-02-21T13:21:21;20.50;49.40
72484;DHT22;74199;52.014;5.430;2024-02-21T13:23:48;20.50;49.40
72484;DHT22;74199;52.014;5.430;2024-02-21T13:26:15;20.50;49.30
72484;DHT22;74199;52.014;5.430;2024-02-21T13:28:42;20.50;49.30
72484;DHT22;74199;52.014;5.430;2024-02-21T13:31:12;20.50;49.30
72484;DHT22;74199;52.014;5.430;2024-02-21T13:33:39;20.50;49.30
72484;DHT22;74199;52.014;5.430;2024-02-21T13:36:06;20.50;49.30
72484;DHT22;74199;52.014;5.430;2024-02-21T13:38:33;20.50;49.30
72484;DHT22;74199;52.014;5.430;2024-02-21T13:41:00;20.50;49.30
72484;DHT22;74199;52.014;5.430;2024-02-21T13:43:28;20.50;49.40
72484;DHT22;74199;52.014;5.430;2024-02-21T13:46:04;20.50;49.30
72484;DHT22;74199;52.014;5.430;2024-02-21T13:48:34;20.50;49.30
72484;DHT22;74199;52.014;5.430;2024-02-21T13:51:01;20.50;49.40
72484;DHT22;74199;52.014;5.430;2024-02-21T13:53:29;20.50;49.40
72484;DHT22;74199;52.014;5.430;2024-02-21T13:55:56;20.50;49.40
72484;DHT22;74199;52.014;5.430;2024-02-21T13:58:23;20.50;49.40
72484;DHT22;74199;52.014;5.430;2024-02-21T14:00:50;20.50;49.40
72484;DHT22;74199;52.014;5.430;2024-02-21T14:03:17;20.50;49.40
72484;DHT22;74199;52.014;5.430;2024-02-21T14:05:46;20.50;49.40
72484;DHT22;74199;52.014;5.430;2024-02-21T14:08:15;20.50;49.30
72484;DHT22;74199;52.014;5.430;2024-02-21T14:10:42;20.50;49.40
72484;DHT22;74199;52.014;5.430;2024-02-21T14:13:09;20.40;49.50
72484;DHT22;74199;52.014;5.430;2024-02-21T14:15:36;20.40;49.70
72484;DHT22;74199;52.014;5.430;2024-02-21T14:18:04;20.50;49.70
72484;DHT22;74199;52.014;5.430;2024-02-21T14:20:36;20.50;49.70
72484;DHT22;74199;52.014;5.430;2024-02-21T14:23:03;20.50;49.60
72484;DHT22;74199;52.014;5.430;2024-02-21T14:25:31;20.50;49.60
72484;DHT22;74199;52.014;5.430;2024-02-21T14:28:00;20.40;49.50
72484;DHT22;74199;52.014;5.430;2024-02-21T14:30:27;20.50;49.50
72484;DHT22;74199;52.014;5.430;2024-02-21T14:32:54;20.50;49.50
72484;DHT22;74199;52.014;5.430;2024-02-21T14:35:22;20.50;49.50
72484;DHT22;74199;52.014;5.430;2024-02-21T14:37:49;20.50;49.50
72484;DHT22;74199;52.014;5.430;2024-02-21T14:40:16;20.50;49.50
72484;DHT22;74199;52.014;5.430;2024-02-21T14:42:43;20.50;49.50
72484;DHT22;74199;52.014;5.430;2024-02-21T14:45:10;20.50;49.40
72484;DHT22;74199;52.014;5.430;2024-02-21T14:47:37;20.50;49.40
72484;DHT22;74199;52.014;5.430;2024-02-21T14:50:04;20.40;49.40
72484;DHT22;74199;52.014;5.430;2024-02-21T14:52:32;20.50;49.40
72484;DHT22;74199;52.014;5.430;2024-02-21T14:55:04;20.40;49.40
72484;DHT22;74199;52.014;5.430;2024-02-21T14:57:33;20.40;49.40
72484;DHT22;74199;52.014;5.430;2024-02-21T15:00:00;20.40;49.30
72484;DHT22;74199;52.014;5.430;2024-02-21T15:02:28;20.40;49.30
72484;DHT22;74199;52.014;5.430;2024-02-21T15:04:55;20.40;49.30
72484;DHT22;74199;52.014;5.430;2024-02-21T15:07:23;20.40;49.20
72484;DHT22;74199;52.014;5.430;2024-02-21T15:09:54;20.40;49.20
72484;DHT22;74199;52.014;5.430;2024-02-21T15:12:21;20.40;49.20
72484;DHT22;74199;52.014;5.430;2024-02-21T15:14:50;20.40;49.20
72484;DHT22;74199;52.014;5.430;2024-02-21T15:17:18;20.40;49.00
72484;DHT22;74199;52.014;5.430;2024-02-21T15:19:45;20.40;49.10
72484;DHT22;74199;52.014;5.430;2024-02-21T15:22:13;20.40;49.00
72484;DHT22;74199;52.014;5.430;2024-02-21T15:24:40;20.40;49.00
72484;DHT22;74199;52.014;5.430;2024-02-21T15:27:08;20.40;49.00
72484;DHT22;74199;52.014;5.430;2024-02-21T15:29:35;20.40;49.00
72484;DHT22;74199;52.014;5.430;2024-02-21T15:32:03;20.40;48.90
72484;DHT22;74199;52.014;5.430;2024-02-21T15:34:30;20.40;48.90